sensor_id;sensor_type;location;lat;lon;timestamp;P1;durP1;ratioP1;P2;durP2;ratioP2
16403;SDS011;8311;50.158;8.642;2022-10-31T00:01:57;10.40;;;5.80;;
16403;SDS011;8311;50.158;8.642;2022-10-31T00:04:51;13.02;;;6.35;;
16403;SDS011;8311;50.158;8.642;2022-10-31T00:07:44;11.23;;;6.18;;
16403;SDS011;8311;50.158;8.642;2022-10-31T00:10:38;9.48;;;6.10;;
16403;SDS011;8311;50.158;8.642;2022-10-31T00:13:30;8.25;;;5.63;;
16403;SDS011;8311;50.158;8.642;2022-10-31T00:16:24;9.10;;;6.53;;
16403;SDS011;8311;50.158;8.642;2022-10-31T00:19:17;8.02;;;6.13;;
16403;SDS011;8311;50.158;8.642;2022-10-31T00:22:11;8.73;;;6.15;;
16403;SDS011;8311;50.158;8.642;2022-10-31T00:25:04;9.32;;;6.13;;
16403;SDS011;8311;50.158;8.642;2022-10-31T00:27:57;13.25;;;6.03;;
16403;SDS011;8311;50.158;8.642;2022-10-31T00:30:51;8.10;;;6.00;;
16403;SDS011;8311;50.158;8.642;2022-10-31T00:33:44;9.30;;;5.85;;
16403;SDS011;8311;50.158;8.642;2022-10-31T00:36:37;9.50;;;5.88;;
16403;SDS011;8311;50.158;8.642;2022-10-31T00:39:32;8.23;;;5.63;;
16403;SDS011;8311;50.158;8.642;2022-10-31T00:42:24;8.18;;;5.72;;
16403;SDS011;8311;50.158;8.642;2022-10-31T00:45:17;8.45;;;5.30;;
16403;SDS011;8311;50.158;8.642;2022-10-31T00:48:10;7.07;;;5.05;;
16403;SDS011;8311;50.158;8.642;2022-10-31T00:51:04;9.32;;;5.60;;
16403;SDS011;8311;50.158;8.642;2022-10-31T00:53:57;11.07;;;5.68;;
16403;SDS011;8311;50.158;8.642;2022-10-31T00:56:52;9.35;;;5.60;;
16403;SDS011;8311;50.158;8.642;2022-10-31T00:59:45;8.55;;;5.22;;
16403;SDS011;8311;50.158;8.642;2022-10-31T01:02:38;11.93;;;6.40;;
16403;SDS011;8311;50.158;8.642;2022-10-31T01:05:32;10.40;;;5.85;;
16403;SDS011;8311;50.158;8.642;2022-10-31T01:08:25;10.80;;;5.32;;
16403;SDS011;8311;50.158;8.642;2022-10-31T01:11:20;7.78;;;5.10;;
16403;SDS011;8311;50.158;8.642;2022-10-31T01:14:16;8.07;;;5.20;;
16403;SDS011;8311;50.158;8.642;2022-10-31T01:17:08;9.93;;;5.22;;
16403;SDS011;8311;50.158;8.642;2022-10-31T01:20:02;8.18;;;5.03;;
16403;SDS011;8311;50.158;8.642;2022-10-31T01:22:56;7.75;;;5.30;;
16403;SDS011;8311;50.158;8.642;2022-10-31T01:25:49;8.30;;;4.68;;
16403;SDS011;8311;50.158;8.642;2022-10-31T01:28:52;8.95;;;5.05;;
16403;SDS011;8311;50.158;8.642;2022-10-31T01:31:49;8.48;;;4.78;;
16403;SDS011;8311;50.158;8.642;2022-10-31T01:34:41;8.82;;;5.40;;
16403;SDS011;8311;50.158;8.642;2022-10-31T01:37:34;6.78;;;4.80;;
16403;SDS011;8311;50.158;8.642;2022-10-31T01:40:28;8.07;;;5.18;;
16403;SDS011;8311;50.158;8.642;2022-10-31T01:43:21;5.60;;;4.30;;
16403;SDS011;8311;50.158;8.642;2022-10-31T01:46:15;6.78;;;4.38;;
16403;SDS011;8311;50.158;8.642;2022-10-31T01:49:13;7.05;;;4.60;;
16403;SDS011;8311;50.158;8.642;2022-10-31T01:52:10;7.28;;;4.57;;
16403;SDS011;8311;50.158;8.642;2022-10-31T01:55:06;7.30;;;4.82;;
16403;SDS011;8311;50.158;8.642;2022-10-31T01:58:04;8.25;;;5.00;;
16403;SDS011;8311;50.158;8.642;2022-10-31T02:01:00;7.63;;;5.05;;
16403;SDS011;8311;50.158;8.642;2022-10-31T02:03:58;6.85;;;4.30;;
16403;SDS011;8311;50.158;8.642;2022-10-31T02:06:53;6.85;;;4.65;;
16403;SDS011;8311;50.158;8.642;2022-10-31T02:09:50;9.30;;;5.00;;
16403;SDS011;8311;50.158;8.642;2022-10-31T02:12:45;9.25;;;4.50;;
16403;SDS011;8311;50.158;8.642;2022-10-31T02:15:40;8.38;;;4.40;;
16403;SDS011;8311;50.158;8.642;2022-10-31T02:18:34;6.90;;;4.38;;
16403;SDS011;8311;50.158;8.642;2022-10-31T02:21:29;7.32;;;4.38;;
16403;SDS011;8311;50.158;8.642;2022-10-31T02:24:35;8.32;;;4.57;;
16403;SDS011;8311;50.158;8.642;2022-10-31T02:27:40;6.78;;;4.13;;
16403;SDS011;8311;50.158;8.642;2022-10-31T02:30:58;9.23;;;4.60;;
16403;SDS011;8311;50.158;8.642;2022-10-31T02:33:59;7.38;;;4.50;;
16403;SDS011;8311;50.158;8.642;2022-10-31T02:36:58;7.53;;;4.50;;
16403;SDS011;8311;50.158;8.642;2022-10-31T02:40:04;7.40;;;4.45;;
16403;SDS011;8311;50.158;8.642;2022-10-31T02:43:05;7.50;;;4.80;;
16403;SDS011;8311;50.158;8.642;2022-10-31T02:46:13;7.72;;;4.88;;
16403;SDS011;8311;50.158;8.642;2022-10-31T02:49:12;7.68;;;4.28;;
16403;SDS011;8311;50.158;8.642;2022-10-31T02:52:17;6.45;;;4.22;;
16403;SDS011;8311;50.158;8.642;2022-10-31T02:55:12;7.78;;;4.80;;
16403;SDS011;8311;50.158;8.642;2022-10-31T02:58:22;9.35;;;4.60;;
16403;SDS011;8311;50.158;8.642;2022-10-31T03:04:53;7.75;;;4.57;;
16403;SDS011;8311;50.158;8.642;2022-10-31T03:08:06;7.32;;;4.65;;
16403;SDS011;8311;50.158;8.642;2022-10-31T03:11:06;7.72;;;4.10;;
16403;SDS011;8311;50.158;8.642;2022-10-31T03:14:03;6.93;;;4.20;;
16403;SDS011;8311;50.158;8.642;2022-10-31T03:17:04;6.63;;;4.40;;
16403;SDS011;8311;50.158;8.642;2022-10-31T03:20:00;5.53;;;3.90;;
16403;SDS011;8311;50.158;8.642;2022-10-31T03:22:55;6.75;;;4.22;;
16403;SDS011;8311;50.158;8.642;2022-10-31T03:25:49;7.15;;;4.65;;
16403;SDS011;8311;50.158;8.642;2022-10-31T03:28:46;7.65;;;4.35;;
16403;SDS011;8311;50.158;8.642;2022-10-31T03:31:44;9.18;;;4.95;;
16403;SDS011;8311;50.158;8.642;2022-10-31T03:34:43;6.72;;;4.57;;
16403;SDS011;8311;50.158;8.642;2022-10-31T03:37:37;7.28;;;4.00;;
16403;SDS011;8311;50.158;8.642;2022-10-31T03:40:32;7.90;;;4.32;;
16403;SDS011;8311;50.158;8.642;2022-10-31T03:43:31;6.03;;;4.15;;
16403;SDS011;8311;50.158;8.642;2022-10-31T03:46:28;5.82;;;4.03;;
16403;SDS011;8311;50.158;8.642;2022-10-31T03:49:21;8.18;;;4.20;;
16403;SDS011;8311;50.158;8.642;2022-10-31T03:52:19;7.82;;;4.10;;
16403;SDS011;8311;50.158;8.642;2022-10-31T03:55:18;6.18;;;3.50;;
16403;SDS011;8311;50.158;8.642;2022-10-31T03:58:14;6.43;;;4.68;;
16403;SDS011;8311;50.158;8.642;2022-10-31T04:01:14;6.53;;;4.28;;
16403;SDS011;8311;50.158;8.642;2022-10-31T04:04:10;7.20;;;4.18;;
16403;SDS011;8311;50.158;8.642;2022-10-31T04:07:03;6.15;;;3.67;;
16403;SDS011;8311;50.158;8.642;2022-10-31T04:10:00;5.90;;;4.20;;
16403;SDS011;8311;50.158;8.642;2022-10-31T04:12:57;6.35;;;3.85;;
16403;SDS011;8311;50.158;8.642;2022-10-31T04:15:55;6.45;;;4.18;;
16403;SDS011;8311;50.158;8.642;2022-10-31T04:18:49;7.63;;;3.63;;
16403;SDS011;8311;50.158;8.642;2022-10-31T04:21:43;5.97;;;4.00;;
16403;SDS011;8311;50.158;8.642;2022-10-31T04:24:37;6.25;;;4.00;;
16403;SDS011;8311;50.158;8.642;2022-10-31T04:27:33;7.22;;;3.83;;
16403;SDS011;8311;50.158;8.642;2022-10-31T04:30:26;6.63;;;4.10;;
16403;SDS011;8311;50.158;8.642;2022-10-31T04:33:20;6.47;;;4.30;;
16403;SDS011;8311;50.158;8.642;2022-10-31T04:36:13;7.65;;;4.30;;
16403;SDS011;8311;50.158;8.642;2022-10-31T04:39:05;6.85;;;4.07;;
16403;SDS011;8311;50.158;8.642;2022-10-31T04:41:58;8.32;;;4.53;;
16403;SDS011;8311;50.158;8.642;2022-10-31T04:44:53;5.18;;;3.72;;
16403;SDS011;8311;50.158;8.642;2022-10-31T04:47:46;6.90;;;3.85;;
16403;SDS011;8311;50.158;8.642;2022-10-31T04:50:39;7.93;;;4.00;;
16403;SDS011;8311;50.158;8.642;2022-10-31T04:53:33;7.18;;;4.07;;
16403;SDS011;8311;50.158;8.642;2022-10-31T04:56:25;5.82;;;3.40;;
16403;SDS011;8311;50.158;8.642;2022-10-31T04:59:18;6.55;;;3.80;;
16403;SDS011;8311;50.158;8.642;2022-10-31T05:02:13;5.47;;;3.63;;
16403;SDS011;8311;50.158;8.642;2022-10-31T05:05:06;5.45;;;3.50;;
16403;SDS011;8311;50.158;8.642;2022-10-31T05:07:59;6.72;;;3.80;;
16403;SDS011;8311;50.158;8.642;2022-10-31T05:10:52;5.18;;;3.22;;
16403;SDS011;8311;50.158;8.642;2022-10-31T05:13:47;6.22;;;3.78;;
16403;SDS011;8311;50.158;8.642;2022-10-31T05:16:40;5.07;;;3.40;;
16403;SDS011;8311;50.158;8.642;2022-10-31T05:19:35;8.20;;;3.75;;
16403;SDS011;8311;50.158;8.642;2022-10-31T05:22:27;5.57;;;3.58;;
16403;SDS011;8311;50.158;8.642;2022-10-31T05:25:21;6.15;;;4.03;;
16403;SDS011;8311;50.158;8.642;2022-10-31T05:28:15;6.53;;;3.92;;
16403;SDS011;8311;50.158;8.642;2022-10-31T05:31:08;4.68;;;3.30;;
16403;SDS011;8311;50.158;8.642;2022-10-31T05:34:01;6.70;;;4.05;;
16403;SDS011;8311;50.158;8.642;2022-10-31T05:36:55;6.90;;;4.05;;
16403;SDS011;8311;50.158;8.642;2022-10-31T05:39:48;9.98;;;4.55;;
16403;SDS011;8311;50.158;8.642;2022-10-31T05:42:42;6.45;;;4.75;;
16403;SDS011;8311;50.158;8.642;2022-10-31T05:45:35;7.95;;;4.22;;
16403;SDS011;8311;50.158;8.642;2022-10-31T05:48:28;7.93;;;4.20;;
16403;SDS011;8311;50.158;8.642;2022-10-31T05:51:22;6.13;;;3.83;;
16403;SDS011;8311;50.158;8.642;2022-10-31T05:54:16;6.45;;;4.28;;
16403;SDS011;8311;50.158;8.642;2022-10-31T05:57:10;6.25;;;4.38;;
16403;SDS011;8311;50.158;8.642;2022-10-31T06:00:04;5.78;;;3.90;;
16403;SDS011;8311;50.158;8.642;2022-10-31T06:02:59;4.88;;;3.67;;
16403;SDS011;8311;50.158;8.642;2022-10-31T06:05:52;6.88;;;4.03;;
16403;SDS011;8311;50.158;8.642;2022-10-31T06:08:46;5.78;;;3.78;;
16403;SDS011;8311;50.158;8.642;2022-10-31T06:11:40;8.25;;;4.65;;
16403;SDS011;8311;50.158;8.642;2022-10-31T06:14:33;5.47;;;3.80;;
16403;SDS011;8311;50.158;8.642;2022-10-31T06:17:25;7.20;;;4.22;;
16403;SDS011;8311;50.158;8.642;2022-10-31T06:20:18;5.70;;;3.97;;
16403;SDS011;8311;50.158;8.642;2022-10-31T06:23:12;6.57;;;4.20;;
16403;SDS011;8311;50.158;8.642;2022-10-31T06:26:05;6.00;;;3.83;;
16403;SDS011;8311;50.158;8.642;2022-10-31T06:28:59;7.40;;;4.10;;
16403;SDS011;8311;50.158;8.642;2022-10-31T06:31:55;5.40;;;3.15;;
16403;SDS011;8311;50.158;8.642;2022-10-31T06:34:47;6.32;;;3.85;;
16403;SDS011;8311;50.158;8.642;2022-10-31T06:37:40;5.07;;;3.40;;
16403;SDS011;8311;50.158;8.642;2022-10-31T06:40:39;6.03;;;3.75;;
16403;SDS011;8311;50.158;8.642;2022-10-31T06:43:32;6.35;;;4.10;;
16403;SDS011;8311;50.158;8.642;2022-10-31T06:46:26;5.18;;;3.63;;
16403;SDS011;8311;50.158;8.642;2022-10-31T06:49:20;5.38;;;3.80;;
16403;SDS011;8311;50.158;8.642;2022-10-31T06:52:12;7.47;;;4.03;;
16403;SDS011;8311;50.158;8.642;2022-10-31T06:55:06;6.20;;;3.80;;
16403;SDS011;8311;50.158;8.642;2022-10-31T06:58:00;5.65;;;3.65;;
16403;SDS011;8311;50.158;8.642;2022-10-31T07:00:54;5.55;;;3.70;;
16403;SDS011;8311;50.158;8.642;2022-10-31T07:03:48;6.07;;;3.90;;
16403;SDS011;8311;50.158;8.642;2022-10-31T07:06:41;5.47;;;3.58;;
16403;SDS011;8311;50.158;8.642;2022-10-31T07:09:39;4.50;;;3.22;;
16403;SDS011;8311;50.158;8.642;2022-10-31T07:12:32;4.88;;;3.33;;
16403;SDS011;8311;50.158;8.642;2022-10-31T07:15:26;5.95;;;3.85;;
16403;SDS011;8311;50.158;8.642;2022-10-31T07:18:21;5.45;;;3.40;;
16403;SDS011;8311;50.158;8.642;2022-10-31T07:21:16;5.97;;;4.15;;
16403;SDS011;8311;50.158;8.642;2022-10-31T07:24:09;5.40;;;3.35;;
16403;SDS011;8311;50.158;8.642;2022-10-31T07:27:03;5.90;;;3.70;;
16403;SDS011;8311;50.158;8.642;2022-10-31T07:29:56;5.40;;;3.42;;
16403;SDS011;8311;50.158;8.642;2022-10-31T07:32:49;4.90;;;3.40;;
16403;SDS011;8311;50.158;8.642;2022-10-31T07:35:42;4.57;;;3.13;;
16403;SDS011;8311;50.158;8.642;2022-10-31T07:38:37;4.68;;;3.30;;
16403;SDS011;8311;50.158;8.642;2022-10-31T07:41:29;6.60;;;3.60;;
16403;SDS011;8311;50.158;8.642;2022-10-31T07:44:23;4.90;;;3.80;;
16403;SDS011;8311;50.158;8.642;2022-10-31T07:47:16;5.20;;;3.53;;
16403;SDS011;8311;50.158;8.642;2022-10-31T07:50:09;5.70;;;3.53;;
16403;SDS011;8311;50.158;8.642;2022-10-31T07:53:04;5.82;;;3.88;;
16403;SDS011;8311;50.158;8.642;2022-10-31T07:56:00;5.63;;;4.07;;
16403;SDS011;8311;50.158;8.642;2022-10-31T07:58:53;6.32;;;3.70;;
16403;SDS011;8311;50.158;8.642;2022-10-31T08:01:45;5.63;;;3.63;;
16403;SDS011;8311;50.158;8.642;2022-10-31T08:04:39;5.60;;;3.55;;
16403;SDS011;8311;50.158;8.642;2022-10-31T08:07:35;6.10;;;3.85;;
16403;SDS011;8311;50.158;8.642;2022-10-31T08:10:29;5.75;;;3.42;;
16403;SDS011;8311;50.158;8.642;2022-10-31T08:13:24;6.40;;;4.35;;
16403;SDS011;8311;50.158;8.642;2022-10-31T08:16:18;6.50;;;4.07;;
16403;SDS011;8311;50.158;8.642;2022-10-31T08:19:10;7.88;;;3.60;;
16403;SDS011;8311;50.158;8.642;2022-10-31T08:22:04;7.60;;;3.58;;
16403;SDS011;8311;50.158;8.642;2022-10-31T08:24:57;6.53;;;3.38;;
16403;SDS011;8311;50.158;8.642;2022-10-31T08:27:51;6.93;;;3.47;;
16403;SDS011;8311;50.158;8.642;2022-10-31T08:30:46;7.25;;;3.50;;
16403;SDS011;8311;50.158;8.642;2022-10-31T08:33:40;6.90;;;4.38;;
16403;SDS011;8311;50.158;8.642;2022-10-31T08:36:33;5.65;;;3.88;;
16403;SDS011;8311;50.158;8.642;2022-10-31T08:39:25;8.10;;;3.95;;
16403;SDS011;8311;50.158;8.642;2022-10-31T08:42:18;8.05;;;3.92;;
16403;SDS011;8311;50.158;8.642;2022-10-31T08:45:12;6.80;;;4.05;;
16403;SDS011;8311;50.158;8.642;2022-10-31T08:48:08;7.63;;;3.33;;
16403;SDS011;8311;50.158;8.642;2022-10-31T08:51:03;7.47;;;4.07;;
16403;SDS011;8311;50.158;8.642;2022-10-31T08:53:57;8.30;;;3.80;;
16403;SDS011;8311;50.158;8.642;2022-10-31T08:56:53;5.18;;;3.55;;
16403;SDS011;8311;50.158;8.642;2022-10-31T08:59:47;6.82;;;4.47;;
16403;SDS011;8311;50.158;8.642;2022-10-31T09:02:40;6.78;;;4.18;;
16403;SDS011;8311;50.158;8.642;2022-10-31T09:05:34;6.07;;;3.95;;
16403;SDS011;8311;50.158;8.642;2022-10-31T09:08:28;5.10;;;3.55;;
16403;SDS011;8311;50.158;8.642;2022-10-31T09:11:23;5.68;;;3.55;;
16403;SDS011;8311;50.158;8.642;2022-10-31T09:14:16;10.73;;;4.60;;
16403;SDS011;8311;50.158;8.642;2022-10-31T09:17:09;7.95;;;4.28;;
16403;SDS011;8311;50.158;8.642;2022-10-31T09:20:02;5.75;;;4.13;;
16403;SDS011;8311;50.158;8.642;2022-10-31T09:22:57;8.55;;;4.00;;
16403;SDS011;8311;50.158;8.642;2022-10-31T09:25:51;8.40;;;4.00;;
16403;SDS011;8311;50.158;8.642;2022-10-31T09:28:45;7.30;;;4.35;;
16403;SDS011;8311;50.158;8.642;2022-10-31T09:31:39;7.18;;;4.18;;
16403;SDS011;8311;50.158;8.642;2022-10-31T09:34:36;9.70;;;4.70;;
16403;SDS011;8311;50.158;8.642;2022-10-31T09:37:28;10.45;;;4.32;;
16403;SDS011;8311;50.158;8.642;2022-10-31T09:40:24;10.50;;;4.20;;
16403;SDS011;8311;50.158;8.642;2022-10-31T09:43:22;14.27;;;5.20;;
16403;SDS011;8311;50.158;8.642;2022-10-31T09:46:23;10.02;;;4.60;;
16403;SDS011;8311;50.158;8.642;2022-10-31T09:49:31;11.00;;;4.50;;
16403;SDS011;8311;50.158;8.642;2022-10-31T09:52:34;8.05;;;4.30;;
16403;SDS011;8311;50.158;8.642;2022-10-31T09:55:34;7.80;;;4.20;;
16403;SDS011;8311;50.158;8.642;2022-10-31T09:58:31;9.15;;;4.55;;
16403;SDS011;8311;50.158;8.642;2022-10-31T10:01:32;9.13;;;4.47;;
16403;SDS011;8311;50.158;8.642;2022-10-31T10:04:32;5.85;;;4.05;;
16403;SDS011;8311;50.158;8.642;2022-10-31T10:07:35;7.03;;;4.10;;
16403;SDS011;8311;50.158;8.642;2022-10-31T10:10:38;7.15;;;4.25;;
16403;SDS011;8311;50.158;8.642;2022-10-31T10:13:46;8.70;;;4.05;;
16403;SDS011;8311;50.158;8.642;2022-10-31T10:16:52;7.93;;;4.13;;
16403;SDS011;8311;50.158;8.642;2022-10-31T10:20:16;5.68;;;4.00;;
16403;SDS011;8311;50.158;8.642;2022-10-31T10:23:23;8.07;;;4.35;;
16403;SDS011;8311;50.158;8.642;2022-10-31T10:26:34;9.25;;;4.60;;
16403;SDS011;8311;50.158;8.642;2022-10-31T10:29:31;7.20;;;4.43;;
16403;SDS011;8311;50.158;8.642;2022-10-31T10:32:28;7.50;;;4.43;;
16403;SDS011;8311;50.158;8.642;2022-10-31T10:35:25;10.65;;;4.88;;
16403;SDS011;8311;50.158;8.642;2022-10-31T10:38:23;14.90;;;4.82;;
16403;SDS011;8311;50.158;8.642;2022-10-31T10:41:22;11.13;;;5.22;;
16403;SDS011;8311;50.158;8.642;2022-10-31T10:44:25;9.45;;;4.30;;
16403;SDS011;8311;50.158;8.642;2022-10-31T10:47:36;7.68;;;3.83;;
16403;SDS011;8311;50.158;8.642;2022-10-31T10:50:34;11.38;;;4.40;;
16403;SDS011;8311;50.158;8.642;2022-10-31T10:53:37;10.55;;;4.00;;
16403;SDS011;8311;50.158;8.642;2022-10-31T10:56:59;8.55;;;4.00;;
16403;SDS011;8311;50.158;8.642;2022-10-31T11:00:01;9.45;;;3.70;;
16403;SDS011;8311;50.158;8.642;2022-10-31T11:03:11;7.88;;;3.70;;
16403;SDS011;8311;50.158;8.642;2022-10-31T11:06:15;9.90;;;4.53;;
16403;SDS011;8311;50.158;8.642;2022-10-31T11:09:14;8.57;;;4.03;;
16403;SDS011;8311;50.158;8.642;2022-10-31T11:12:09;8.55;;;3.53;;
16403;SDS011;8311;50.158;8.642;2022-10-31T11:15:17;6.55;;;3.60;;
16403;SDS011;8311;50.158;8.642;2022-10-31T11:18:17;6.47;;;3.83;;
16403;SDS011;8311;50.158;8.642;2022-10-31T11:21:19;7.13;;;3.78;;
16403;SDS011;8311;50.158;8.642;2022-10-31T11:24:15;6.93;;;3.80;;
16403;SDS011;8311;50.158;8.642;2022-10-31T11:27:11;6.45;;;3.47;;
16403;SDS011;8311;50.158;8.642;2022-10-31T11:30:09;9.32;;;3.53;;
16403;SDS011;8311;50.158;8.642;2022-10-31T11:33:11;10.00;;;4.20;;
16403;SDS011;8311;50.158;8.642;2022-10-31T11:36:14;6.30;;;3.53;;
16403;SDS011;8311;50.158;8.642;2022-10-31T11:39:15;8.88;;;4.07;;
16403;SDS011;8311;50.158;8.642;2022-10-31T11:42:11;8.30;;;3.72;;
16403;SDS011;8311;50.158;8.642;2022-10-31T11:45:06;6.40;;;3.70;;
16403;SDS011;8311;50.158;8.642;2022-10-31T11:48:14;6.18;;;3.97;;
16403;SDS011;8311;50.158;8.642;2022-10-31T11:51:09;5.88;;;3.72;;
16403;SDS011;8311;50.158;8.642;2022-10-31T11:54:02;7.75;;;4.53;;
16403;SDS011;8311;50.158;8.642;2022-10-31T11:56:57;8.20;;;4.22;;
16403;SDS011;8311;50.158;8.642;2022-10-31T11:59:50;8.65;;;4.65;;
16403;SDS011;8311;50.158;8.642;2022-10-31T12:02:45;7.97;;;4.30;;
16403;SDS011;8311;50.158;8.642;2022-10-31T12:05:39;6.43;;;4.15;;
16403;SDS011;8311;50.158;8.642;2022-10-31T12:08:36;8.27;;;4.60;;
16403;SDS011;8311;50.158;8.642;2022-10-31T12:11:36;6.53;;;3.90;;
16403;SDS011;8311;50.158;8.642;2022-10-31T12:14:38;6.47;;;3.85;;
16403;SDS011;8311;50.158;8.642;2022-10-31T12:17:38;6.25;;;4.03;;
16403;SDS011;8311;50.158;8.642;2022-10-31T12:20:39;5.68;;;3.58;;
16403;SDS011;8311;50.158;8.642;2022-10-31T12:23:43;7.55;;;4.50;;
16403;SDS011;8311;50.158;8.642;2022-10-31T12:26:46;7.28;;;4.13;;
16403;SDS011;8311;50.158;8.642;2022-10-31T12:30:00;8.35;;;4.15;;
16403;SDS011;8311;50.158;8.642;2022-10-31T12:33:07;6.55;;;3.80;;
16403;SDS011;8311;50.158;8.642;2022-10-31T12:36:15;6.45;;;3.65;;
16403;SDS011;8311;50.158;8.642;2022-10-31T12:39:24;6.05;;;3.33;;
16403;SDS011;8311;50.158;8.642;2022-10-31T12:42:24;6.32;;;3.70;;
16403;SDS011;8311;50.158;8.642;2022-10-31T12:45:39;6.75;;;3.85;;
16403;SDS011;8311;50.158;8.642;2022-10-31T12:52:07;5.00;;;3.38;;
16403;SDS011;8311;50.158;8.642;2022-10-31T12:55:15;6.88;;;3.70;;
16403;SDS011;8311;50.158;8.642;2022-10-31T12:58:26;5.93;;;3.92;;
16403;SDS011;8311;50.158;8.642;2022-10-31T13:01:23;6.68;;;3.85;;
16403;SDS011;8311;50.158;8.642;2022-10-31T13:04:21;8.00;;;3.65;;
16403;SDS011;8311;50.158;8.642;2022-10-31T13:07:25;6.22;;;3.70;;
16403;SDS011;8311;50.158;8.642;2022-10-31T13:10:24;7.03;;;3.75;;
16403;SDS011;8311;50.158;8.642;2022-10-31T13:13:23;6.88;;;4.03;;
16403;SDS011;8311;50.158;8.642;2022-10-31T13:16:24;7.05;;;3.80;;
16403;SDS011;8311;50.158;8.642;2022-10-31T13:19:22;5.35;;;3.28;;
16403;SDS011;8311;50.158;8.642;2022-10-31T13:22:18;5.45;;;3.15;;
16403;SDS011;8311;50.158;8.642;2022-10-31T13:25:16;5.00;;;3.30;;
16403;SDS011;8311;50.158;8.642;2022-10-31T13:28:18;5.40;;;3.38;;
16403;SDS011;8311;50.158;8.642;2022-10-31T13:31:18;7.28;;;3.65;;
16403;SDS011;8311;50.158;8.642;2022-10-31T13:34:17;8.63;;;3.65;;
16403;SDS011;8311;50.158;8.642;2022-10-31T13:37:16;6.32;;;3.88;;
16403;SDS011;8311;50.158;8.642;2022-10-31T13:40:20;6.72;;;3.88;;
16403;SDS011;8311;50.158;8.642;2022-10-31T13:43:27;6.00;;;4.13;;
16403;SDS011;8311;50.158;8.642;2022-10-31T13:46:26;6.97;;;4.25;;
16403;SDS011;8311;50.158;8.642;2022-10-31T13:49:39;6.88;;;4.00;;
16403;SDS011;8311;50.158;8.642;2022-10-31T13:52:33;9.25;;;3.75;;
16403;SDS011;8311;50.158;8.642;2022-10-31T13:55:37;8.45;;;4.38;;
16403;SDS011;8311;50.158;8.642;2022-10-31T13:58:32;7.47;;;4.13;;
16403;SDS011;8311;50.158;8.642;2022-10-31T14:01:26;6.10;;;3.53;;
16403;SDS011;8311;50.158;8.642;2022-10-31T14:04:22;9.30;;;3.60;;
16403;SDS011;8311;50.158;8.642;2022-10-31T14:07:18;6.88;;;3.38;;
16403;SDS011;8311;50.158;8.642;2022-10-31T14:10:19;6.25;;;3.80;;
16403;SDS011;8311;50.158;8.642;2022-10-31T14:13:20;10.05;;;3.70;;
16403;SDS011;8311;50.158;8.642;2022-10-31T14:16:17;8.98;;;4.10;;
16403;SDS011;8311;50.158;8.642;2022-10-31T14:19:14;8.32;;;3.60;;
16403;SDS011;8311;50.158;8.642;2022-10-31T14:22:18;10.95;;;4.13;;
16403;SDS011;8311;50.158;8.642;2022-10-31T14:25:29;6.95;;;3.30;;
16403;SDS011;8311;50.158;8.642;2022-10-31T14:28:32;10.18;;;3.85;;
16403;SDS011;8311;50.158;8.642;2022-10-31T14:31:31;10.30;;;3.63;;
16403;SDS011;8311;50.158;8.642;2022-10-31T14:34:29;8.73;;;3.95;;
16403;SDS011;8311;50.158;8.642;2022-10-31T14:37:30;13.18;;;3.88;;
16403;SDS011;8311;50.158;8.642;2022-10-31T14:40:33;6.68;;;3.50;;
16403;SDS011;8311;50.158;8.642;2022-10-31T14:43:39;10.48;;;3.85;;
16403;SDS011;8311;50.158;8.642;2022-10-31T14:46:48;8.90;;;3.65;;
16403;SDS011;8311;50.158;8.642;2022-10-31T14:49:50;7.28;;;3.58;;
16403;SDS011;8311;50.158;8.642;2022-10-31T14:53:05;5.80;;;3.22;;
16403;SDS011;8311;50.158;8.642;2022-10-31T14:56:09;5.63;;;3.47;;
16403;SDS011;8311;50.158;8.642;2022-10-31T14:59:09;6.13;;;3.50;;
16403;SDS011;8311;50.158;8.642;2022-10-31T15:02:08;7.10;;;3.40;;
16403;SDS011;8311;50.158;8.642;2022-10-31T15:05:07;6.55;;;3.50;;
16403;SDS011;8311;50.158;8.642;2022-10-31T15:08:01;8.65;;;3.50;;
16403;SDS011;8311;50.158;8.642;2022-10-31T15:10:54;6.68;;;3.22;;
16403;SDS011;8311;50.158;8.642;2022-10-31T15:13:48;8.75;;;3.78;;
16403;SDS011;8311;50.158;8.642;2022-10-31T15:16:43;8.57;;;3.95;;
16403;SDS011;8311;50.158;8.642;2022-10-31T15:19:36;7.25;;;3.47;;
16403;SDS011;8311;50.158;8.642;2022-10-31T15:22:30;6.88;;;3.63;;
16403;SDS011;8311;50.158;8.642;2022-10-31T15:25:26;5.70;;;3.13;;
16403;SDS011;8311;50.158;8.642;2022-10-31T15:28:23;8.15;;;3.45;;
16403;SDS011;8311;50.158;8.642;2022-10-31T15:31:17;9.50;;;3.22;;
16403;SDS011;8311;50.158;8.642;2022-10-31T15:34:15;5.97;;;2.90;;
16403;SDS011;8311;50.158;8.642;2022-10-31T15:37:11;13.73;;;3.65;;
16403;SDS011;8311;50.158;8.642;2022-10-31T15:40:06;10.00;;;3.35;;
16403;SDS011;8311;50.158;8.642;2022-10-31T15:43:06;6.90;;;3.30;;
16403;SDS011;8311;50.158;8.642;2022-10-31T15:45:59;7.88;;;3.38;;
16403;SDS011;8311;50.158;8.642;2022-10-31T15:48:54;5.88;;;3.28;;
16403;SDS011;8311;50.158;8.642;2022-10-31T15:51:49;7.65;;;3.28;;
16403;SDS011;8311;50.158;8.642;2022-10-31T15:54:46;7.20;;;3.00;;
16403;SDS011;8311;50.158;8.642;2022-10-31T15:57:41;7.68;;;3.10;;
16403;SDS011;8311;50.158;8.642;2022-10-31T16:00:37;8.38;;;2.97;;
16403;SDS011;8311;50.158;8.642;2022-10-31T16:03:30;10.35;;;3.65;;
16403;SDS011;8311;50.158;8.642;2022-10-31T16:06:25;9.20;;;3.20;;
16403;SDS011;8311;50.158;8.642;2022-10-31T16:09:22;7.90;;;3.35;;
16403;SDS011;8311;50.158;8.642;2022-10-31T16:12:16;7.80;;;3.15;;
16403;SDS011;8311;50.158;8.642;2022-10-31T16:15:13;7.70;;;3.40;;
16403;SDS011;8311;50.158;8.642;2022-10-31T16:18:10;6.82;;;3.35;;
16403;SDS011;8311;50.158;8.642;2022-10-31T16:21:04;6.82;;;3.13;;
16403;SDS011;8311;50.158;8.642;2022-10-31T16:24:00;11.35;;;3.60;;
16403;SDS011;8311;50.158;8.642;2022-10-31T16:27:01;6.90;;;3.10;;
16403;SDS011;8311;50.158;8.642;2022-10-31T16:29:58;8.38;;;3.25;;
16403;SDS011;8311;50.158;8.642;2022-10-31T16:32:56;5.40;;;3.13;;
16403;SDS011;8311;50.158;8.642;2022-10-31T16:35:51;6.47;;;3.25;;
16403;SDS011;8311;50.158;8.642;2022-10-31T16:39:00;7.93;;;3.45;;
16403;SDS011;8311;50.158;8.642;2022-10-31T16:41:54;6.07;;;3.38;;
16403;SDS011;8311;50.158;8.642;2022-10-31T16:44:49;6.35;;;3.00;;
16403;SDS011;8311;50.158;8.642;2022-10-31T16:47:43;6.03;;;3.20;;
16403;SDS011;8311;50.158;8.642;2022-10-31T16:50:36;7.47;;;3.50;;
16403;SDS011;8311;50.158;8.642;2022-10-31T16:53:30;6.20;;;3.53;;
16403;SDS011;8311;50.158;8.642;2022-10-31T16:56:24;5.68;;;3.30;;
16403;SDS011;8311;50.158;8.642;2022-10-31T16:59:20;5.00;;;2.83;;
16403;SDS011;8311;50.158;8.642;2022-10-31T17:02:15;6.43;;;3.10;;
16403;SDS011;8311;50.158;8.642;2022-10-31T17:05:11;8.63;;;2.72;;
16403;SDS011;8311;50.158;8.642;2022-10-31T17:08:05;6.97;;;2.80;;
16403;SDS011;8311;50.158;8.642;2022-10-31T17:10:59;6.18;;;3.30;;
16403;SDS011;8311;50.158;8.642;2022-10-31T17:13:52;10.25;;;2.88;;
16403;SDS011;8311;50.158;8.642;2022-10-31T17:16:47;9.40;;;2.85;;
16403;SDS011;8311;50.158;8.642;2022-10-31T17:19:42;10.77;;;3.97;;
16403;SDS011;8311;50.158;8.642;2022-10-31T17:22:35;11.93;;;3.22;;
16403;SDS011;8311;50.158;8.642;2022-10-31T17:25:33;17.33;;;3.75;;
16403;SDS011;8311;50.158;8.642;2022-10-31T17:28:27;9.63;;;3.45;;
16403;SDS011;8311;50.158;8.642;2022-10-31T17:31:21;13.52;;;4.05;;
16403;SDS011;8311;50.158;8.642;2022-10-31T17:34:15;17.98;;;4.22;;
16403;SDS011;8311;50.158;8.642;2022-10-31T17:37:10;12.77;;;4.00;;
16403;SDS011;8311;50.158;8.642;2022-10-31T17:40:03;14.65;;;3.67;;
16403;SDS011;8311;50.158;8.642;2022-10-31T17:42:58;10.50;;;3.53;;
16403;SDS011;8311;50.158;8.642;2022-10-31T17:45:53;13.18;;;3.40;;
16403;SDS011;8311;50.158;8.642;2022-10-31T17:48:46;9.80;;;3.30;;
16403;SDS011;8311;50.158;8.642;2022-10-31T17:51:40;9.80;;;4.05;;
16403;SDS011;8311;50.158;8.642;2022-10-31T17:54:35;11.18;;;3.40;;
16403;SDS011;8311;50.158;8.642;2022-10-31T17:57:31;14.30;;;3.03;;
16403;SDS011;8311;50.158;8.642;2022-10-31T18:00:25;8.13;;;3.15;;
16403;SDS011;8311;50.158;8.642;2022-10-31T18:03:18;15.98;;;4.03;;
16403;SDS011;8311;50.158;8.642;2022-10-31T18:06:12;9.23;;;3.45;;
16403;SDS011;8311;50.158;8.642;2022-10-31T18:09:07;8.85;;;3.63;;